John P. Brown — WDA9975 — position and weather

sailwx.info

Track history (hours):
 
Tides and Currents Weather Stations Pressure Air Temp Water Temp Dewpoint Dewpoint Depression Visibility Wind Speed Wind Dir Waves Ship Positions

John P. Brown

Owner: THOMAS J. BROWN & SONS INC., STATEN ISLAND, NY. More information available from US FCC via Universal Licensing System and Coast Guard Vessel Documentation Center.

Last reported at 2018-May-18 22:36 UTC. Time now 2018-May-20 13:25 UTC.
Position N 40°38' W 074°10'.

Length 23 m; draft 2.8 m.

Type: Tug. MMSI: 366870980.

Date/timePositionNaut miles runAvg speedWind from/ knotsBaromVisibWave heightAir tempDewpointWater temp
2018-May-18 22:36N 40°38' W 074°10'1 3.0
2018-May-18 22:08N 40°39' W 074°12'0 0.5
2018-May-18 22:00N 40°39' W 074°11'1 2.0
2018-May-18 21:18N 40°39' W 074°10'2 5.5
2018-May-18 21:00N 40°39' W 074°08'1 1.5
2018-May-18 20:30N 40°39' W 074°07'2 3.8
2018-May-18 20:00N 40°39' W 074°04'3 6.5
2018-May-18 19:30N 40°41' W 074°01'4 7.1
2018-May-18 18:57N 40°45' W 073°58'1 0.3
2018-May-18 14:55N 40°46' W 073°57'3 6.2
2018-May-18 14:30N 40°43' W 073°58'3 5.9
2018-May-18 14:00N 40°41' W 074°01'2 4.9
2018-May-18 13:30N 40°40' W 074°04'1 1.2
2018-May-18 13:00N 40°40' W 074°03'0 0.1
2018-May-18 12:30N 40°40' W 074°03'1 2.6
2018-May-18 12:00N 40°39' W 074°02'2 4.1
2018-May-18 11:30N 40°40' W 074°04'4 7.6
2018-May-18 10:59N 40°38' W 074°09'0 0.0
2018-May-17 17:25N 40°38' W 074°09'2 4.0
2018-May-17 16:59N 40°39' W 074°07'2 3.7
2018-May-17 16:30N 40°39' W 074°05'1 2.9
2018-May-17 16:00N 40°41' W 074°04'2 4.1
2018-May-17 15:30N 40°39' W 074°03'1 1.5
2018-May-17 15:00N 40°39' W 074°02'1 1.4
2018-May-17 14:30N 40°39' W 074°02'2 4.0
2018-May-17 14:00N 40°41' W 074°04'0 0.0
2018-May-17 13:30N 40°41' W 074°04'1 2.1
2018-May-17 13:00N 40°40' W 074°03'2 3.4
2018-May-17 12:30N 40°39' W 074°02'0 0.9
2018-May-17 12:00N 40°39' W 074°02'2 4.6
2018-May-17 11:30N 40°41' W 074°04'4 5.9
2018-May-17 10:52N 40°39' W 074°08'1 0.0
2018-May-15 17:18N 40°38' W 074°10'3 8.1
2018-May-15 16:58N 40°41' W 074°09'0 0.4
2018-May-15 16:01N 40°41' W 074°08'0 3.4
2018-May-15 16:01N 40°41' W 074°08'0 0.1
2018-May-15 15:27N 40°41' W 074°08'0 0.2
2018-May-15 15:01N 40°41' W 074°08'0 0.1
2018-May-15 14:29N 40°41' W 074°08'1 1.0
2018-May-15 13:52N 40°41' W 074°08'2 4.4
2018-May-15 13:30N 40°39' W 074°09'4 7.8
2018-May-15 13:01N 40°40' W 074°04'2 4.9
2018-May-15 12:30N 40°40' W 074°01'0 0.1
2018-May-15 12:01N 40°40' W 074°01'0 0.0
2018-May-15 11:30N 40°40' W 074°01'1 2.0
2018-May-15 11:01N 40°39' W 074°02'3 5.2
2018-May-15 10:29N 40°39' W 074°05'2 4.3
2018-May-15 10:00N 40°39' W 074°08'3 5.0
2018-May-15 09:30N 40°39' W 074°11'1 2.6
2018-May-15 09:00N 40°38' W 074°10'0 0.0
2018-May-14 17:34N 40°38' W 074°10'0 0.0
2018-May-14 17:30N 40°38' W 074°10'1 2.9
2018-May-14 17:00N 40°39' W 074°08'3 6.9
2018-May-14 16:30N 40°40' W 074°04'0 0.7
2018-May-14 16:00N 40°40' W 074°04'2 4.0
2018-May-14 15:30N 40°39' W 074°02'0 0.0
2018-May-14 14:57N 40°39' W 074°02'2 4.9
2018-May-14 14:30N 40°40' W 074°04'1 1.1
2018-May-14 14:00N 40°41' W 074°04'0 0.0
2018-May-14 13:30N 40°41' W 074°04'2 4.6
2018-May-14 13:00N 40°39' W 074°02'0 0.9
2018-May-14 12:30N 40°39' W 074°02'0 1.0
2018-May-14 12:00N 40°39' W 074°02'2 4.3
2018-May-14 11:30N 40°41' W 074°04'2 4.0
2018-May-14 11:00N 40°39' W 074°06'  
2018-May-12 03:12N 40°38' W 074°10'1 5.5
2018-May-12 03:00N 40°39' W 074°08'4 8.3
2018-May-12 02:31N 40°40' W 074°03'611.2
2018-May-12 02:00N 40°45' W 074°01'4 0.9
2018-May-11 22:04N 40°48' W 073°59'1 8.6
2018-May-11 21:59N 40°48' W 073°59'5 9.6
2018-May-11 21:31N 40°43' W 074°02'4 1.0
2018-May-11 17:21N 40°40' W 074°04'1 3.4
2018-May-11 17:01N 40°41' W 074°04'2 3.1
2018-May-11 16:30N 40°39' W 074°03'1 2.4
2018-May-11 16:00N 40°39' W 074°02'0 0.8
2018-May-11 15:24N 40°39' W 074°02'2 5.0
2018-May-11 15:00N 40°41' W 074°04'0 0.5
2018-May-11 14:28N 40°41' W 074°04'0 0.0
2018-May-11 14:00N 40°41' W 074°04'1 1.5
2018-May-11 13:30N 40°40' W 074°04'2 3.8
2018-May-11 12:58N 40°39' W 074°02'0 0.0
2018-May-11 12:23N 40°39' W 074°02'1 3.2
2018-May-11 11:59N 40°40' W 074°03'1 2.2
2018-May-11 11:18N 40°41' W 074°04'2 6.7
2018-May-11 11:01N 40°41' W 074°02'3 2.8
2018-May-11 09:55N 40°42' W 073°58'3 7.7
2018-May-11 09:31N 40°41' W 074°02'3 0.2
2018-May-10 16:42N 40°39' W 074°05'1 5.6
2018-May-10 16:30N 40°40' W 074°04'1 1.8
2018-May-10 16:00N 40°41' W 074°04'3 3.9
2018-May-10 15:18N 40°39' W 074°02'0 0.0
2018-May-10 14:50N 40°39' W 074°02'2 4.9
2018-May-10 14:28N 40°40' W 074°03'1 2.0
2018-May-10 14:00N 40°41' W 074°04'0 0.0
2018-May-10 13:30N 40°41' W 074°04'2 3.3
2018-May-10 13:01N 40°40' W 074°03'1 2.4
2018-May-10 12:30N 40°39' W 074°02'0 0.9
2018-May-10 12:00N 40°39' W 074°02'2 4.4
2018-May-10 11:30N 40°41' W 074°04'2 3.0
2018-May-10 10:58N 40°39' W 074°05'4 8.3
2018-May-10 10:30N 40°38' W 074°10'0 0.0
2018-May-09 17:14N 40°38' W 074°09'2 6.4
2018-May-09 16:59N 40°39' W 074°07'2 5.1
2018-May-09 16:30N 40°40' W 074°04'1 1.8
2018-May-09 16:00N 40°41' W 074°04'2 4.2
2018-May-09 15:30N 40°39' W 074°03'1 1.3
2018-May-09 15:00N 40°39' W 074°02'1 2.7
2018-May-09 14:30N 40°40' W 074°03'1 2.9
2018-May-09 14:00N 40°41' W 074°04'0 0.0
2018-May-09 13:30N 40°41' W 074°04'2 4.0
2018-May-09 13:00N 40°39' W 074°02'1 1.5
2018-May-09 12:30N 40°39' W 074°02'0 0.7
2018-May-09 12:00N 40°39' W 074°02'2 4.6
2018-May-09 11:30N 40°41' W 074°04'2 4.0
2018-May-09 10:59N 40°39' W 074°06'  
Track history (hours):
 
Tides and Currents Weather Stations Pressure Air Temp Water Temp Dewpoint Dewpoint Depression Visibility Wind Speed Wind Dir Waves Ship Positions

John P. Brown

Owner: THOMAS J. BROWN & SONS INC., STATEN ISLAND, NY. More information available from US FCC via Universal Licensing System and Coast Guard Vessel Documentation Center.

Last reported at 2018-May-18 22:36 UTC. Time now 2018-May-20 13:26 UTC.
Position N 40°38' W 074°10'.

Length 23 m; draft 2.8 m.

Type: Tug. MMSI: 366870980.

Date/timePositionNaut miles runAvg speedWind from/ knotsBaromVisibWave heightAir tempDewpointWater temp
2018-May-18 22:36N 40°38' W 074°10'1 3.0
2018-May-18 22:08N 40°39' W 074°12'0 0.5
2018-May-18 22:00N 40°39' W 074°11'1 2.0
2018-May-18 21:18N 40°39' W 074°10'2 5.5
2018-May-18 21:00N 40°39' W 074°08'1 1.5
2018-May-18 20:30N 40°39' W 074°07'2 3.8
2018-May-18 20:00N 40°39' W 074°04'3 6.5
2018-May-18 19:30N 40°41' W 074°01'4 7.1
2018-May-18 18:57N 40°45' W 073°58'1 0.3
2018-May-18 14:55N 40°46' W 073°57'3 6.2
2018-May-18 14:30N 40°43' W 073°58'3 5.9
2018-May-18 14:00N 40°41' W 074°01'2 4.9
2018-May-18 13:30N 40°40' W 074°04'1 1.2
2018-May-18 13:00N 40°40' W 074°03'0 0.1
2018-May-18 12:30N 40°40' W 074°03'1 2.6
2018-May-18 12:00N 40°39' W 074°02'2 4.1
2018-May-18 11:30N 40°40' W 074°04'4 7.6
2018-May-18 10:59N 40°38' W 074°09'0 0.0
2018-May-17 17:25N 40°38' W 074°09'2 4.0
2018-May-17 16:59N 40°39' W 074°07'2 3.7
2018-May-17 16:30N 40°39' W 074°05'1 2.9
2018-May-17 16:00N 40°41' W 074°04'2 4.1
2018-May-17 15:30N 40°39' W 074°03'1 1.5
2018-May-17 15:00N 40°39' W 074°02'1 1.4
2018-May-17 14:30N 40°39' W 074°02'2 4.0
2018-May-17 14:00N 40°41' W 074°04'0 0.0
2018-May-17 13:30N 40°41' W 074°04'1 2.1
2018-May-17 13:00N 40°40' W 074°03'2 3.4
2018-May-17 12:30N 40°39' W 074°02'0 0.9
2018-May-17 12:00N 40°39' W 074°02'2 4.6
2018-May-17 11:30N 40°41' W 074°04'4 5.9
2018-May-17 10:52N 40°39' W 074°08'1 0.0
2018-May-15 17:18N 40°38' W 074°10'3 8.1
2018-May-15 16:58N 40°41' W 074°09'0 0.4
2018-May-15 16:01N 40°41' W 074°08'0 3.4
2018-May-15 16:01N 40°41' W 074°08'0 0.1
2018-May-15 15:27N 40°41' W 074°08'0 0.2
2018-May-15 15:01N 40°41' W 074°08'0 0.1
2018-May-15 14:29N 40°41' W 074°08'1 1.0
2018-May-15 13:52N 40°41' W 074°08'2 4.4
2018-May-15 13:30N 40°39' W 074°09'4 7.8
2018-May-15 13:01N 40°40' W 074°04'2 4.9
2018-May-15 12:30N 40°40' W 074°01'0 0.1
2018-May-15 12:01N 40°40' W 074°01'0 0.0
2018-May-15 11:30N 40°40' W 074°01'1 2.0
2018-May-15 11:01N 40°39' W 074°02'3 5.2
2018-May-15 10:29N 40°39' W 074°05'2 4.3
2018-May-15 10:00N 40°39' W 074°08'3 5.0
2018-May-15 09:30N 40°39' W 074°11'1 2.6
2018-May-15 09:00N 40°38' W 074°10'0 0.0
2018-May-14 17:34N 40°38' W 074°10'0 0.0
2018-May-14 17:30N 40°38' W 074°10'1 2.9
2018-May-14 17:00N 40°39' W 074°08'3 6.9
2018-May-14 16:30N 40°40' W 074°04'0 0.7
2018-May-14 16:00N 40°40' W 074°04'2 4.0
2018-May-14 15:30N 40°39' W 074°02'0 0.0
2018-May-14 14:57N 40°39' W 074°02'2 4.9
2018-May-14 14:30N 40°40' W 074°04'1 1.1
2018-May-14 14:00N 40°41' W 074°04'0 0.0
2018-May-14 13:30N 40°41' W 074°04'2 4.6
2018-May-14 13:00N 40°39' W 074°02'0 0.9
2018-May-14 12:30N 40°39' W 074°02'0 1.0
2018-May-14 12:00N 40°39' W 074°02'2 4.3
2018-May-14 11:30N 40°41' W 074°04'2 4.0
2018-May-14 11:00N 40°39' W 074°06'  
2018-May-12 03:12N 40°38' W 074°10'1 5.5
2018-May-12 03:00N 40°39' W 074°08'4 8.3
2018-May-12 02:31N 40°40' W 074°03'611.2
2018-May-12 02:00N 40°45' W 074°01'4 0.9
2018-May-11 22:04N 40°48' W 073°59'1 8.6
2018-May-11 21:59N 40°48' W 073°59'5 9.6
2018-May-11 21:31N 40°43' W 074°02'4 1.0
2018-May-11 17:21N 40°40' W 074°04'1 3.4
2018-May-11 17:01N 40°41' W 074°04'2 3.1
2018-May-11 16:30N 40°39' W 074°03'1 2.4
2018-May-11 16:00N 40°39' W 074°02'0 0.8
2018-May-11 15:24N 40°39' W 074°02'2 5.0
2018-May-11 15:00N 40°41' W 074°04'0 0.5
2018-May-11 14:28N 40°41' W 074°04'0 0.0
2018-May-11 14:00N 40°41' W 074°04'1 1.5
2018-May-11 13:30N 40°40' W 074°04'2 3.8
2018-May-11 12:58N 40°39' W 074°02'0 0.0
2018-May-11 12:23N 40°39' W 074°02'1 3.2
2018-May-11 11:59N 40°40' W 074°03'1 2.2
2018-May-11 11:18N 40°41' W 074°04'2 6.7
2018-May-11 11:01N 40°41' W 074°02'3 2.8
2018-May-11 09:55N 40°42' W 073°58'3 7.7
2018-May-11 09:31N 40°41' W 074°02'3 0.2
2018-May-10 16:42N 40°39' W 074°05'1 5.6
2018-May-10 16:30N 40°40' W 074°04'1 1.8
2018-May-10 16:00N 40°41' W 074°04'3 3.9
2018-May-10 15:18N 40°39' W 074°02'0 0.0
2018-May-10 14:50N 40°39' W 074°02'2 4.9
2018-May-10 14:28N 40°40' W 074°03'1 2.0
2018-May-10 14:00N 40°41' W 074°04'0 0.0
2018-May-10 13:30N 40°41' W 074°04'2 3.3
2018-May-10 13:01N 40°40' W 074°03'1 2.4
2018-May-10 12:30N 40°39' W 074°02'0 0.9
2018-May-10 12:00N 40°39' W 074°02'2 4.4
2018-May-10 11:30N 40°41' W 074°04'2 3.0
2018-May-10 10:58N 40°39' W 074°05'4 8.3
2018-May-10 10:30N 40°38' W 074°10'0 0.0
2018-May-09 17:14N 40°38' W 074°09'2 6.4
2018-May-09 16:59N 40°39' W 074°07'2 5.1
2018-May-09 16:30N 40°40' W 074°04'1 1.8
2018-May-09 16:00N 40°41' W 074°04'2 4.2
2018-May-09 15:30N 40°39' W 074°03'1 1.3
2018-May-09 15:00N 40°39' W 074°02'1 2.7
2018-May-09 14:30N 40°40' W 074°03'1 2.9
2018-May-09 14:00N 40°41' W 074°04'0 0.0
2018-May-09 13:30N 40°41' W 074°04'2 4.0
2018-May-09 13:00N 40°39' W 074°02'1 1.5
2018-May-09 12:30N 40°39' W 074°02'0 0.7
2018-May-09 12:00N 40°39' W 074°02'2 4.6
2018-May-09 11:30N 40°41' W 074°04'2 4.0
2018-May-09 10:59N 40°39' W 074°06'  

Dump ship's entire track history